Time;durP1;ratioP1;P1;durP2;ratioP2;P2;SDS_P1;SDS_P2;PMS_P1;PMS_P2;Temp;Humidity;BMP_temperature;BMP_pressure;BME280_temperature;BME280_humidity;BME280_pressure;Samples;Min_cycle;Max_cycle;Signal;HPM_P1;HPM_P2
2024/03/11 00:01:12;;;;;;;9.07;3.53;;;7.90;99.90;;;;;;5033650;28;20029;-75
2024/03/11 00:03:38;;;;;;;6.10;3.95;;;7.90;99.90;;;;;;5034221;28;20072;-75
2024/03/11 00:06:05;;;;;;;8.85;4.22;;;7.80;99.90;;;;;;5008137;28;20471;-75
2024/03/11 00:08:31;;;;;;;10.73;4.47;;;7.70;99.90;;;;;;5016549;28;20018;-75
2024/03/11 00:11:00;;;;;;;6.97;4.10;;;7.70;99.90;;;;;;5016390;28;20435;-75
2024/03/11 00:13:32;;;;;;;8.48;4.00;;;7.60;99.90;;;;;;5033523;28;20029;-77
2024/03/11 00:15:59;;;;;;;11.35;4.43;;;7.60;99.90;;;;;;5034112;28;20112;-76
2024/03/11 00:18:25;;;;;;;11.07;3.58;;;7.50;99.90;;;;;;5016269;28;20080;-75
2024/03/11 00:20:51;;;;;;;5.22;3.25;;;7.50;99.90;;;;;;5033932;28;20025;-76
2024/03/11 00:23:17;;;;;;;4.55;3.50;;;7.40;99.90;;;;;;5033279;28;20065;-75
2024/03/11 00:25:45;;;;;;;9.30;3.75;;;7.40;99.90;;;;;;5016059;28;20445;-75
2024/03/11 00:28:11;;;;;;;9.18;3.50;;;7.40;99.90;;;;;;5033749;28;20100;-75
2024/03/11 00:30:37;;;;;;;8.63;4.22;;;7.30;99.90;;;;;;5016075;28;20508;-75
2024/03/11 00:33:03;;;;;;;9.68;3.92;;;7.20;99.90;;;;;;5033257;28;20569;-75
2024/03/11 00:35:33;;;;;;;7.45;3.13;;;7.20;99.90;;;;;;5018574;28;20021;-75
2024/03/11 00:37:58;;;;;;;9.20;4.13;;;7.10;99.90;;;;;;5034296;28;20032;-75
2024/03/11 00:40:24;;;;;;;8.05;3.50;;;7.10;99.90;;;;;;5033366;28;20029;-75
2024/03/11 00:42:51;;;;;;;6.95;3.55;;;7.00;99.90;;;;;;5033031;28;20022;-75
2024/03/11 00:45:18;;;;;;;5.07;3.33;;;7.10;99.90;;;;;;5015644;28;20028;-75
2024/03/11 00:47:45;;;;;;;7.22;3.90;;;7.00;99.90;;;;;;5033278;28;20021;-75
2024/03/11 00:50:14;;;;;;;10.50;4.85;;;7.00;99.90;;;;;;5032356;28;20029;-75
2024/03/11 00:52:41;;;;;;;10.75;4.70;;;7.00;99.90;;;;;;5033341;28;20091;-75
2024/03/11 00:55:09;;;;;;;7.45;3.60;;;7.10;99.90;;;;;;5033228;28;20040;-76
2024/03/11 00:57:38;;;;;;;8.32;4.90;;;7.10;99.90;;;;;;5015499;28;20029;-75
2024/03/11 01:00:05;;;;;;;6.97;4.07;;;7.20;99.90;;;;;;5033076;28;20029;-75
2024/03/11 01:02:33;;;;;;;9.45;4.25;;;7.20;99.90;;;;;;5014864;28;20030;-75
2024/03/11 01:04:59;;;;;;;9.98;5.00;;;7.20;99.90;;;;;;5033054;28;20051;-75
2024/03/11 01:07:25;;;;;;;8.93;4.65;;;7.10;99.90;;;;;;5032915;28;20368;-76
2024/03/11 01:09:54;;;;;;;6.10;4.40;;;7.20;99.90;;;;;;5032851;28;20032;-75
2024/03/11 01:12:23;;;;;;;12.32;4.22;;;7.20;99.90;;;;;;5032452;28;20022;-75
2024/03/11 01:14:51;;;;;;;8.23;4.25;;;7.20;99.90;;;;;;5032917;28;20399;-76
2024/03/11 01:17:20;;;;;;;7.60;3.60;;;7.30;99.90;;;;;;5015104;28;20021;-76
2024/03/11 01:19:47;;;;;;;7.30;3.97;;;7.20;99.90;;;;;;5014930;28;20430;-75
2024/03/11 01:22:13;;;;;;;10.60;4.43;;;7.20;99.90;;;;;;5032057;28;20056;-75
2024/03/11 01:24:39;;;;;;;10.95;3.75;;;7.20;99.90;;;;;;5015000;28;20029;-76
2024/03/11 01:27:10;;;;;;;5.78;3.65;;;7.10;99.90;;;;;;5014883;28;20391;-75
2024/03/11 01:29:39;;;;;;;9.10;3.92;;;7.20;99.90;;;;;;5014851;28;20025;-76
2024/03/11 01:32:13;;;;;;;6.72;4.30;;;7.20;99.90;;;;;;5032056;28;20036;-77
2024/03/11 01:34:42;;;;;;;9.63;3.45;;;7.20;99.90;;;;;;5014679;28;20026;-76
2024/03/11 01:37:08;;;;;;;4.88;3.58;;;7.20;99.90;;;;;;5014764;28;20033;-75
2024/03/11 01:39:42;;;;;;;6.50;3.67;;;7.10;99.90;;;;;;5014598;28;20029;-75
2024/03/11 01:42:11;;;;;;;10.68;3.92;;;7.00;99.90;;;;;;5031968;28;20022;-75
2024/03/11 01:44:38;;;;;;;8.52;4.20;;;7.00;99.90;;;;;;5014664;28;20077;-75
2024/03/11 01:47:04;;;;;;;9.13;4.75;;;7.00;99.90;;;;;;5016588;28;20032;-76
2024/03/11 01:49:31;;;;;;;9.02;4.78;;;6.90;99.90;;;;;;5015413;28;20029;-75
2024/03/11 01:51:57;;;;;;;7.93;4.78;;;6.90;99.90;;;;;;5031619;28;20071;-75
2024/03/11 01:54:25;;;;;;;5.70;4.07;;;6.90;99.90;;;;;;5014199;28;20033;-77
2024/03/11 01:56:51;;;;;;;8.70;4.07;;;6.90;99.90;;;;;;5032215;28;20124;-75
2024/03/11 01:59:18;;;;;;;9.13;4.80;;;6.90;99.90;;;;;;5014376;28;20530;-75
2024/03/11 02:01:44;;;;;;;15.38;6.65;;;6.90;99.90;;;;;;5031117;28;20426;-76
2024/03/11 02:04:10;;;;;;;21.65;11.43;;;6.90;99.90;;;;;;5014421;28;20112;-75
2024/03/11 02:06:36;;;;;;;14.88;7.40;;;6.90;99.90;;;;;;5032106;28;20440;-75
2024/03/11 02:09:04;;;;;;;17.58;7.18;;;6.90;99.90;;;;;;5014326;28;20483;-75
2024/03/11 02:11:30;;;;;;;15.93;7.97;;;6.90;99.90;;;;;;5031395;28;20033;-76
2024/03/11 02:13:55;;;;;;;13.52;6.78;;;6.90;99.90;;;;;;5031993;28;20036;-75
2024/03/11 02:16:22;;;;;;;9.10;5.20;;;6.90;99.90;;;;;;5031848;28;20064;-75
2024/03/11 02:18:51;;;;;;;9.75;4.82;;;6.90;99.90;;;;;;5031755;28;20024;-75
2024/03/11 02:21:17;;;;;;;6.57;4.18;;;6.90;99.90;;;;;;5031247;28;20064;-76
2024/03/11 02:23:43;;;;;;;9.20;4.13;;;6.90;99.90;;;;;;5014102;28;20084;-75
2024/03/11 02:26:09;;;;;;;54.90;13.02;;;6.90;99.90;;;;;;5031865;28;20100;-75
2024/03/11 02:28:34;;;;;;;13.18;6.18;;;6.90;99.90;;;;;;5014181;28;20112;-75
2024/03/11 02:31:00;;;;;;;7.85;4.90;;;6.90;99.90;;;;;;5013841;28;20022;-75
2024/03/11 02:33:26;;;;;;;7.68;4.68;;;6.90;99.90;;;;;;5031135;28;20040;-75
2024/03/11 02:35:51;;;;;;;16.65;4.70;;;6.90;99.90;;;;;;5014035;28;20036;-75
2024/03/11 02:38:19;;;;;;;9.30;4.00;;;6.80;99.90;;;;;;5031603;28;20022;-75
2024/03/11 02:40:44;;;;;;;5.88;3.78;;;6.80;99.90;;;;;;5031520;28;20029;-75
2024/03/11 02:43:10;;;;;;;5.85;3.13;;;6.70;99.90;;;;;;5031013;28;20060;-76
2024/03/11 02:45:35;;;;;;;5.20;3.22;;;6.70;99.90;;;;;;5013888;28;20108;-75
2024/03/11 02:48:01;;;;;;;5.82;3.35;;;6.60;99.90;;;;;;5014100;28;20017;-75
2024/03/11 02:50:27;;;;;;;4.95;4.00;;;6.60;99.90;;;;;;5013811;28;20112;-75
2024/03/11 02:52:53;;;;;;;8.43;4.85;;;6.60;99.90;;;;;;5013206;28;20028;-75
2024/03/11 02:55:21;;;;;;;3.85;2.72;;;6.60;99.90;;;;;;5013871;28;20037;-76
2024/03/11 02:57:48;;;;;;;4.30;2.83;;;6.70;99.90;;;;;;5014477;28;20487;-76
2024/03/11 03:00:15;;;;;;;6.90;3.53;;;6.70;99.90;;;;;;5015840;28;20493;-75
2024/03/11 03:02:42;;;;;;;5.35;3.38;;;6.60;99.90;;;;;;5013225;28;20025;-75
2024/03/11 03:05:08;;;;;;;5.88;3.50;;;6.60;99.90;;;;;;5031468;28;20097;-75
2024/03/11 03:07:35;;;;;;;5.32;3.00;;;6.50;99.90;;;;;;5013748;28;20499;-75
2024/03/11 03:10:02;;;;;;;5.95;3.03;;;6.50;99.90;;;;;;5031368;28;20128;-75
2024/03/11 03:12:29;;;;;;;3.50;2.75;;;6.60;99.90;;;;;;5014070;28;20029;-75
2024/03/11 03:14:57;;;;;;;5.75;2.38;;;6.50;99.90;;;;;;5032221;28;20112;-75
2024/03/11 03:17:22;;;;;;;4.97;3.20;;;6.40;99.90;;;;;;5015835;28;20030;-75
2024/03/11 03:19:48;;;;;;;5.78;3.22;;;6.40;99.90;;;;;;5006494;28;20100;-76
2024/03/11 03:22:14;;;;;;;4.75;2.83;;;6.30;99.90;;;;;;5022718;28;20075;-75
2024/03/11 03:24:39;;;;;;;10.25;3.47;;;6.20;99.90;;;;;;5015081;28;20105;-75
2024/03/11 03:27:05;;;;;;;4.00;2.80;;;6.20;99.90;;;;;;5015061;28;20034;-75
2024/03/11 03:29:31;;;;;;;6.47;3.35;;;6.10;99.90;;;;;;5013392;28;20639;-75
2024/03/11 03:31:57;;;;;;;7.22;3.80;;;6.10;99.90;;;;;;5007064;28;20109;-75
2024/03/11 03:34:24;;;;;;;6.63;4.07;;;6.20;99.90;;;;;;5017060;28;20029;-75
2024/03/11 03:36:49;;;;;;;6.43;3.75;;;6.20;99.90;;;;;;5017069;28;20029;-75
2024/03/11 03:39:15;;;;;;;6.43;3.50;;;6.20;99.90;;;;;;5034534;28;20033;-75
2024/03/11 03:41:41;;;;;;;5.28;2.70;;;6.20;99.90;;;;;;5034269;28;20111;-76
2024/03/11 03:44:07;;;;;;;3.95;2.55;;;6.20;99.90;;;;;;5016938;28;20380;-74
2024/03/11 03:46:32;;;;;;;5.30;2.55;;;6.10;99.90;;;;;;5016933;28;20025;-75
2024/03/11 03:48:58;;;;;;;7.88;2.95;;;6.00;99.90;;;;;;5034462;28;20072;-75
2024/03/11 03:51:24;;;;;;;10.25;6.40;;;5.90;99.90;;;;;;5033998;28;20033;-75
2024/03/11 03:53:50;;;;;;;12.13;5.65;;;6.00;99.90;;;;;;5016520;28;20036;-75
2024/03/11 03:56:15;;;;;;;7.93;4.53;;;5.90;99.90;;;;;;5034310;28;20029;-74
2024/03/11 03:58:41;;;;;;;11.02;3.75;;;5.90;99.90;;;;;;5034395;28;20396;-76
2024/03/11 04:01:08;;;;;;;5.28;3.28;;;6.00;99.90;;;;;;5034039;28;20030;-76
2024/03/11 04:03:34;;;;;;;9.55;3.83;;;6.00;99.90;;;;;;5034112;28;20526;-75
2024/03/11 04:06:00;;;;;;;8.13;3.95;;;6.00;99.90;;;;;;5034222;28;20026;-76
2024/03/11 04:08:26;;;;;;;5.00;3.17;;;6.00;99.90;;;;;;5034267;28;20021;-76
2024/03/11 04:10:51;;;;;;;7.43;3.88;;;6.00;99.90;;;;;;5035526;28;20021;-76
2024/03/11 04:13:17;;;;;;;6.35;3.47;;;6.00;99.90;;;;;;5035102;28;20033;-75
2024/03/11 04:15:43;;;;;;;5.00;3.22;;;5.90;99.90;;;;;;5035593;28;20401;-75
2024/03/11 04:18:13;;;;;;;4.60;2.75;;;5.90;99.90;;;;;;5016297;28;20028;-75
2024/03/11 04:20:42;;;;;;;3.20;2.20;;;6.00;99.90;;;;;;5016037;28;20026;-75
2024/03/11 04:23:08;;;;;;;4.90;3.05;;;6.00;99.90;;;;;;5015474;28;20028;-76
2024/03/11 04:25:38;;;;;;;9.50;4.13;;;5.90;99.90;;;;;;5033837;28;20026;-75
2024/03/11 04:28:05;;;;;;;5.53;3.38;;;6.00;99.90;;;;;;5033908;28;20014;-75
2024/03/11 04:30:37;;;;;;;5.13;2.80;;;6.00;99.90;;;;;;5033770;28;20029;-75
2024/03/11 04:33:03;;;;;;;6.15;2.97;;;6.00;99.90;;;;;;5033223;28;20048;-74
2024/03/11 04:35:31;;;;;;;7.57;3.25;;;6.00;99.90;;;;;;5033664;28;20026;-75
2024/03/11 04:38:04;;;;;;;5.43;3.20;;;6.00;99.90;;;;;;5033579;28;20113;-75
2024/03/11 04:40:33;;;;;;;9.70;3.63;;;6.00;99.90;;;;;;5032883;28;20033;-76
2024/03/11 04:42:58;;;;;;;7.57;3.28;;;6.00;99.90;;;;;;5032037;28;20021;-76
2024/03/11 04:45:29;;;;;;;5.38;2.50;;;6.00;99.90;;;;;;5004353;28;20055;-76
2024/03/11 04:47:59;;;;;;;2.70;1.80;;;6.10;99.90;;;;;;5013207;28;20108;-76
2024/03/11 04:50:30;;;;;;;3.33;1.77;;;6.10;99.90;;;;;;5030478;28;20117;-76
2024/03/11 04:53:01;;;;;;;2.42;1.48;;;6.00;99.90;;;;;;5025825;28;20500;-75
2024/03/11 04:55:27;;;;;;;4.25;2.63;;;6.00;99.90;;;;;;5013344;28;20408;-75
2024/03/11 04:57:53;;;;;;;4.90;2.92;;;6.10;99.90;;;;;;5004206;28;20026;-75
2024/03/11 05:00:20;;;;;;;4.03;2.75;;;6.00;99.90;;;;;;5014303;28;20038;-75
2024/03/11 05:02:46;;;;;;;3.00;2.67;;;6.00;99.90;;;;;;5032033;28;20017;-75
2024/03/11 05:05:11;;;;;;;5.65;3.17;;;6.00;99.90;;;;;;5004986;28;20567;-76
2024/03/11 05:07:37;;;;;;;6.43;4.00;;;6.00;99.90;;;;;;5022576;28;20026;-75
2024/03/11 05:10:04;;;;;;;9.93;5.28;;;6.00;99.90;;;;;;5013274;28;20487;-75
2024/03/11 05:12:31;;;;;;;6.10;4.20;;;5.90;99.90;;;;;;5032338;28;20056;-75
2024/03/11 05:14:58;;;;;;;6.78;3.80;;;6.00;99.90;;;;;;5032609;28;20051;-76
2024/03/11 05:17:24;;;;;;;7.72;3.95;;;6.40;99.90;;;;;;5029214;28;20037;-75
2024/03/11 05:19:51;;;;;;;8.02;4.20;;;6.30;99.90;;;;;;5024293;28;20026;-75
2024/03/11 05:22:17;;;;;;;8.05;4.32;;;6.20;99.90;;;;;;5013408;28;20607;-76
2024/03/11 05:24:42;;;;;;;7.63;3.90;;;6.20;99.90;;;;;;5031026;28;20026;-74
2024/03/11 05:27:08;;;;;;;7.47;4.25;;;6.10;99.90;;;;;;5006079;28;20724;-74
2024/03/11 05:29:34;;;;;;;4.57;3.30;;;6.10;99.90;;;;;;5032496;28;20033;-74
2024/03/11 05:32:02;;;;;;;8.70;3.40;;;6.10;99.90;;;;;;5031385;28;20094;-74
2024/03/11 05:34:28;;;;;;;12.07;4.70;;;6.10;99.90;;;;;;5032071;28;20025;-74
2024/03/11 05:36:53;;;;;;;9.68;5.00;;;6.10;99.90;;;;;;5032010;28;20515;-74
2024/03/11 05:39:20;;;;;;;11.50;5.50;;;6.10;99.90;;;;;;5023937;28;20053;-74
2024/03/11 05:41:45;;;;;;;12.55;5.45;;;6.10;99.90;;;;;;5020904;28;20083;-75
2024/03/11 05:44:11;;;;;;;9.57;5.63;;;6.10;99.90;;;;;;5023339;28;20025;-74
2024/03/11 05:46:37;;;;;;;11.70;4.38;;;6.10;99.90;;;;;;5032344;28;20383;-75
2024/03/11 05:49:08;;;;;;;8.82;5.80;;;6.20;99.90;;;;;;5023447;28;20018;-75
2024/03/11 05:51:37;;;;;;;6.40;4.18;;;6.10;99.90;;;;;;5031014;28;20063;-73
2024/03/11 05:54:03;;;;;;;9.15;5.10;;;6.20;99.90;;;;;;5024654;28;20076;-73
2024/03/11 05:56:29;;;;;;;6.43;4.57;;;6.20;99.90;;;;;;5005848;28;20029;-73
2024/03/11 05:58:55;;;;;;;9.02;5.97;;;6.20;99.90;;;;;;5022892;28;20026;-74
2024/03/11 06:01:23;;;;;;;10.13;5.43;;;6.20;99.90;;;;;;5012434;28;20026;-74
2024/03/11 06:03:50;;;;;;;13.48;5.25;;;6.20;99.90;;;;;;5031509;28;20054;-74
2024/03/11 06:06:20;;;;;;;9.27;3.67;;;6.20;99.90;;;;;;5006311;28;20391;-75
2024/03/11 06:08:46;;;;;;;5.20;3.88;;;6.20;99.90;;;;;;5014248;28;20017;-74
2024/03/11 06:11:12;;;;;;;8.18;3.53;;;6.20;99.90;;;;;;5031467;28;20076;-74
2024/03/11 06:13:37;;;;;;;8.27;3.78;;;6.30;99.90;;;;;;5031895;28;20021;-73
2024/03/11 06:16:07;;;;;;;10.00;4.55;;;6.30;99.90;;;;;;5013235;28;20033;-74
2024/03/11 06:18:35;;;;;;;8.00;5.68;;;7.50;99.90;;;;;;5024943;28;20488;-74
2024/03/11 06:21:02;;;;;;;14.88;6.28;;;7.20;99.90;;;;;;5005747;28;20111;-74
2024/03/11 06:23:28;;;;;;;8.50;5.53;;;7.20;99.90;;;;;;5027747;28;20023;-75
2024/03/11 06:25:54;;;;;;;7.90;5.55;;;7.10;99.90;;;;;;5022695;28;20044;-75
2024/03/11 06:28:22;;;;;;;10.80;8.18;;;7.00;99.90;;;;;;5012820;28;20049;-75
2024/03/11 06:30:49;;;;;;;8.38;5.82;;;6.90;99.90;;;;;;5028299;28;20569;-74
2024/03/11 06:33:16;;;;;;;7.85;4.40;;;6.80;99.90;;;;;;5023231;28;20029;-75
2024/03/11 06:35:42;;;;;;;7.82;5.15;;;6.80;99.90;;;;;;5036392;28;20037;-76
2024/03/11 06:38:07;;;;;;;12.90;5.43;;;6.80;99.90;;;;;;5006519;28;20030;-74
2024/03/11 06:40:33;;;;;;;10.75;5.78;;;6.80;99.90;;;;;;5031914;28;20077;-75
2024/03/11 06:42:58;;;;;;;12.10;6.00;;;6.80;99.90;;;;;;5030890;28;20049;-75
2024/03/11 06:45:24;;;;;;;10.07;6.43;;;6.80;99.90;;;;;;5031671;28;20049;-75
2024/03/11 06:47:51;;;;;;;12.80;8.05;;;6.80;99.90;;;;;;5033201;28;20100;-75
2024/03/11 06:50:18;;;;;;;13.32;6.75;;;6.90;99.90;;;;;;5035680;28;20491;-74
2024/03/11 06:52:45;;;;;;;11.07;6.18;;;7.00;99.90;;;;;;5035266;28;20117;-74
2024/03/11 06:55:11;;;;;;;8.98;5.00;;;7.00;99.90;;;;;;5035488;28;20033;-74
2024/03/11 06:57:41;;;;;;;8.10;4.72;;;7.20;99.90;;;;;;5035360;28;20029;-75
2024/03/11 07:00:19;;;;;;;8.20;4.75;;;7.30;99.90;;;;;;5035400;28;20442;-75
2024/03/11 07:02:49;;;;;;;5.93;4.10;;;7.30;99.90;;;;;;5035004;28;20105;-74
2024/03/11 07:05:14;;;;;;;10.00;5.32;;;7.50;99.90;;;;;;5035319;28;20057;-75
2024/03/11 07:07:42;;;;;;;6.88;5.00;;;7.60;99.90;;;;;;5033298;28;20048;-75
2024/03/11 07:10:09;;;;;;;6.53;4.85;;;7.70;99.90;;;;;;5030501;28;20026;-74
2024/03/11 07:12:35;;;;;;;13.63;5.72;;;7.80;99.90;;;;;;5023441;28;20025;-75
2024/03/11 07:15:03;;;;;;;8.73;5.18;;;8.00;99.90;;;;;;5032671;28;20025;-75
2024/03/11 07:17:28;;;;;;;6.35;4.68;;;8.00;99.90;;;;;;5030558;28;20022;-75
2024/03/11 07:19:54;;;;;;;10.68;6.85;;;8.00;99.90;;;;;;5023641;28;20417;-74
2024/03/11 07:22:20;;;;;;;11.70;5.65;;;8.00;99.90;;;;;;5026314;28;20045;-74
2024/03/11 07:24:46;;;;;;;14.95;6.40;;;7.90;99.90;;;;;;5008726;28;20484;-73
2024/03/11 07:27:16;;;;;;;11.00;6.15;;;7.90;99.90;;;;;;5025737;28;20026;-73
2024/03/11 07:29:43;;;;;;;11.07;6.50;;;7.90;99.90;;;;;;5017227;28;20535;-73
2024/03/11 07:32:11;;;;;;;7.32;5.32;;;7.90;99.90;;;;;;5034352;28;20021;-73
2024/03/11 07:34:39;;;;;;;9.15;5.00;;;7.90;99.90;;;;;;5033368;28;20168;-73
2024/03/11 07:37:06;;;;;;;10.80;4.68;;;8.00;99.90;;;;;;5014678;28;20029;-75
2024/03/11 07:39:32;;;;;;;5.68;3.88;;;8.10;99.90;;;;;;5031274;28;20097;-74
2024/03/11 07:41:59;;;;;;;8.35;4.35;;;8.10;99.90;;;;;;5030119;28;20089;-74
2024/03/11 07:44:26;;;;;;;6.13;3.80;;;8.10;99.90;;;;;;5030097;28;20017;-74
2024/03/11 07:46:52;;;;;;;5.32;3.25;;;8.10;99.90;;;;;;5011556;28;20108;-75
2024/03/11 07:49:17;;;;;;;9.10;4.28;;;8.20;99.90;;;;;;5028264;28;20100;-75
2024/03/11 07:51:43;;;;;;;5.90;3.90;;;8.30;99.90;;;;;;5013943;28;20558;-74
2024/03/11 07:54:11;;;;;;;7.45;4.00;;;8.40;99.90;;;;;;5025960;28;20491;-74
2024/03/11 07:56:38;;;;;;;9.00;4.47;;;9.90;99.90;;;;;;5050223;23;20091;-72
2024/03/11 07:59:05;;;;;;;8.18;3.88;;;10.40;99.90;;;;;;5044562;28;20040;-72
2024/03/11 08:01:31;;;;;;;6.93;4.65;;;10.00;99.90;;;;;;5029505;28;20384;-72
2024/03/11 08:03:57;;;;;;;5.60;3.90;;;9.70;99.90;;;;;;5036567;28;20025;-73
2024/03/11 08:06:24;;;;;;;5.60;4.38;;;9.40;99.90;;;;;;5054145;28;20021;-72
2024/03/11 08:08:52;;;;;;;8.57;4.35;;;9.40;99.90;;;;;;5036332;28;20025;-72
2024/03/11 08:11:21;;;;;;;5.50;3.63;;;9.30;99.90;;;;;;5053705;28;20487;-73
2024/03/11 08:13:46;;;;;;;6.82;3.90;;;9.20;99.90;;;;;;5054322;28;20108;-74
2024/03/11 08:16:13;;;;;;;6.00;4.45;;;9.20;99.90;;;;;;5054374;28;20122;-72
2024/03/11 08:18:45;;;;;;;7.35;4.22;;;9.30;99.90;;;;;;5054574;28;20052;-73
2024/03/11 08:21:10;;;;;;;11.68;4.75;;;9.30;99.90;;;;;;5054214;28;20029;-74
2024/03/11 08:23:40;;;;;;;10.13;5.45;;;9.50;99.90;;;;;;5036468;28;20025;-72
2024/03/11 08:26:09;;;;;;;7.22;4.60;;;9.50;99.90;;;;;;5054962;28;20013;-72
2024/03/11 08:28:41;;;;;;;9.27;4.05;;;9.50;99.90;;;;;;5055067;28;20490;-72
2024/03/11 08:31:07;;;;;;;7.50;4.65;;;9.60;99.90;;;;;;5055297;28;20021;-72
2024/03/11 08:33:35;;;;;;;7.22;4.47;;;9.70;99.90;;;;;;5055008;28;20021;-73
2024/03/11 08:36:04;;;;;;;8.18;4.68;;;9.70;99.90;;;;;;5055478;28;20032;-73
2024/03/11 08:38:30;;;;;;;7.63;4.55;;;9.70;99.90;;;;;;5055335;28;20025;-72
2024/03/11 08:40:55;;;;;;;8.70;4.82;;;9.90;99.90;;;;;;5056033;28;20048;-72
2024/03/11 08:43:22;;;;;;;12.07;4.72;;;9.70;99.90;;;;;;5055343;28;20499;-73
2024/03/11 08:45:48;;;;;;;7.95;5.30;;;9.80;99.90;;;;;;5036611;28;20461;-72
2024/03/11 08:48:13;;;;;;;11.05;5.32;;;9.90;99.90;;;;;;5054565;28;20025;-73
2024/03/11 08:50:39;;;;;;;6.70;5.10;;;9.90;99.90;;;;;;5036770;28;20212;-73
2024/03/11 08:53:08;;;;;;;7.55;4.93;;;9.90;99.90;;;;;;5035443;28;20025;-74
2024/03/11 08:55:34;;;;;;;7.05;4.82;;;10.10;99.90;;;;;;5053774;28;20032;-73
2024/03/11 08:58:01;;;;;;;5.85;4.18;;;10.20;99.90;;;;;;5053362;28;20036;-72
2024/03/11 09:00:30;;;;;;;7.90;3.75;;;10.30;99.90;;;;;;5053089;28;20032;-73
2024/03/11 09:02:56;;;;;;;5.32;3.85;;;10.30;99.90;;;;;;5053350;28;20028;-72
2024/03/11 09:05:22;;;;;;;6.70;3.05;;;10.40;99.90;;;;;;5053717;28;20025;-74
2024/03/11 09:07:51;;;;;;;2.75;1.92;;;10.50;99.90;;;;;;5035633;28;20036;-72
2024/03/11 09:10:17;;;;;;;2.58;2.08;;;10.60;99.90;;;;;;5052346;28;20029;-73
2024/03/11 09:12:46;;;;;;;1.85;1.52;;;10.60;99.90;;;;;;5052789;28;20028;-73
2024/03/11 09:15:15;;;;;;;1.50;1.27;;;10.80;99.90;;;;;;5053158;28;20059;-73
2024/03/11 09:17:45;;;;;;;3.10;1.63;;;10.80;99.90;;;;;;5053166;28;20108;-72
2024/03/11 09:20:15;;;;;;;2.35;1.63;;;10.90;99.90;;;;;;5035147;28;20052;-73
2024/03/11 09:22:47;;;;;;;1.45;1.33;;;11.10;99.90;;;;;;5052755;28;20376;-74
2024/03/11 09:25:17;;;;;;;1.40;1.23;;;11.00;99.90;;;;;;5053442;28;20056;-72
2024/03/11 09:27:51;;;;;;;2.88;1.80;;;11.10;99.90;;;;;;5053065;28;20032;-72
2024/03/11 09:30:17;;;;;;;1.55;1.42;;;11.20;99.90;;;;;;5052966;28;20510;-72
2024/03/11 09:32:44;;;;;;;2.05;1.25;;;11.20;99.90;;;;;;5052361;28;20037;-72
2024/03/11 09:35:16;;;;;;;4.38;1.83;;;11.20;99.90;;;;;;5053148;28;20049;-74
2024/03/11 09:37:46;;;;;;;1.40;1.30;;;11.30;99.90;;;;;;5034836;28;20025;-73
2024/03/11 09:40:16;;;;;;;6.13;1.80;;;11.40;99.90;;;;;;5052170;28;20119;-73
2024/03/11 09:42:51;;;;;;;3.13;1.05;;;11.40;99.90;;;;;;5051804;28;20027;-73
2024/03/11 09:45:18;;;;;;;1.52;1.20;;;11.40;99.90;;;;;;5034518;28;20025;-72
2024/03/11 09:47:52;;;;;;;8.50;2.88;;;11.20;99.90;;;;;;5034149;28;20029;-74
2024/03/11 09:50:30;;;;;;;1.58;1.30;;;11.20;99.90;;;;;;5051853;28;20052;-73
2024/03/11 09:53:06;;;;;;;5.70;1.05;;;11.30;99.90;;;;;;5033877;28;20029;-74
2024/03/11 09:55:35;;;;;;;;;;;11.40;99.90;;;;;;5034603;28;20025;-74
2024/03/11 09:58:05;;;;;;;1.15;0.82;;;11.40;99.90;;;;;;5051890;28;20359;-72
2024/03/11 10:00:33;;;;;;;2.70;1.40;;;11.50;99.90;;;;;;5051785;28;20060;-72
2024/03/11 10:03:03;;;;;;;2.17;1.50;;;11.50;99.90;;;;;;5051455;28;20017;-72
2024/03/11 10:05:32;;;;;;;1.95;1.58;;;11.50;99.90;;;;;;5052420;28;20021;-73
2024/03/11 10:08:01;;;;;;;2.90;1.35;;;11.50;99.90;;;;;;5052126;28;20075;-73
2024/03/11 10:10:32;;;;;;;3.97;1.33;;;11.50;99.90;;;;;;5052156;28;20540;-73
2024/03/11 10:13:04;;;;;;;8.02;1.70;;;11.60;99.90;;;;;;5051455;28;20048;-72
2024/03/11 10:15:34;;;;;;;2.47;1.67;;;11.60;99.90;;;;;;5051975;28;20025;-73
2024/03/11 10:18:09;;;;;;;4.93;1.40;;;11.60;99.90;;;;;;5033945;28;20025;-72
2024/03/11 10:20:34;;;;;;;2.33;1.40;;;11.50;99.90;;;;;;5051909;28;20128;-72
2024/03/11 10:23:06;;;;;;;6.13;1.55;;;11.40;99.90;;;;;;5051130;28;20060;-73
2024/03/11 10:25:33;;;;;;;2.35;1.58;;;11.60;99.90;;;;;;5033960;28;20051;-72
2024/03/11 10:27:59;;;;;;;2.63;1.55;;;11.70;99.90;;;;;;5033882;28;20032;-71
2024/03/11 10:30:26;;;;;;;1.98;1.10;;;11.80;99.90;;;;;;5052054;28;20029;-72
2024/03/11 10:32:55;;;;;;;4.93;1.17;;;11.80;99.90;;;;;;5051298;28;20053;-73
2024/03/11 10:35:21;;;;;;;3.53;1.33;;;12.00;99.90;;;;;;5051701;28;20021;-72
2024/03/11 10:37:50;;;;;;;1.70;1.23;;;12.10;99.90;;;;;;5051918;28;20029;-73
2024/03/11 10:40:18;;;;;;;1.10;0.80;;;12.10;99.90;;;;;;5048115;28;20418;-73
2024/03/11 10:42:53;;;;;;;0.88;0.77;;;12.30;99.90;;;;;;5048770;28;20365;-75
2024/03/11 10:45:48;;;;;;;;;;;12.00;99.90;;;;;;5047118;28;20483;-73
2024/03/11 10:48:15;;;;;;;1.50;0.75;;;11.90;99.90;;;;;;5026527;28;19905;-73
2024/03/11 10:50:41;;;;;;;0.90;0.63;;;11.90;99.90;;;;;;5027707;28;20099;-73
2024/03/11 10:53:36;;;;;;;1.38;0.38;;;12.00;99.90;;;;;;5031095;28;20105;-73
2024/03/11 10:56:07;;;;;;;1.55;1.00;;;12.00;99.90;;;;;;5018818;28;20033;-74
2024/03/11 10:58:34;;;;;;;0.98;0.70;;;12.00;99.90;;;;;;5033439;28;20067;-72
2024/03/11 11:01:03;;;;;;;1.42;0.95;;;12.10;99.90;;;;;;5051366;28;20029;-73
2024/03/11 11:03:31;;;;;;;2.83;0.95;;;12.10;99.90;;;;;;5033096;28;20052;-72
2024/03/11 11:06:01;;;;;;;1.17;0.65;;;12.00;99.90;;;;;;5051441;28;20048;-72
2024/03/11 11:08:31;;;;;;;1.42;0.98;;;12.00;99.90;;;;;;5051882;28;20025;-72
2024/03/11 11:10:58;;;;;;;5.70;0.85;;;12.00;99.90;;;;;;5051255;28;20047;-73
2024/03/11 11:13:29;;;;;;;2.42;0.95;;;11.90;99.90;;;;;;5032816;28;20430;-72
2024/03/11 11:15:58;;;;;;;2.42;0.80;;;11.70;99.90;;;;;;5033135;28;20025;-73
2024/03/11 11:18:24;;;;;;;0.80;0.70;;;11.60;99.90;;;;;;5051391;28;20067;-73
2024/03/11 11:20:52;;;;;;;1.23;0.73;;;11.70;99.90;;;;;;5050932;28;20491;-72
2024/03/11 11:23:27;;;;;;;1.88;1.10;;;11.70;99.90;;;;;;5051313;28;20021;-72
2024/03/11 11:25:58;;;;;;;5.05;1.13;;;11.70;99.90;;;;;;5051327;28;20025;-73
2024/03/11 11:28:29;;;;;;;1.38;0.98;;;11.80;99.90;;;;;;5033564;28;20098;-74
2024/03/11 11:31:15;;;;;;;5.43;1.17;;;11.80;99.90;;;;;;5051411;28;20049;-73
2024/03/11 11:33:56;;;;;;;1.23;1.10;;;11.70;99.90;;;;;;5052961;28;20487;-74
2024/03/11 11:36:31;;;;;;;2.65;0.70;;;11.70;99.90;;;;;;5054864;28;20120;-71
2024/03/11 11:39:17;;;;;;;1.98;0.90;;;11.60;99.90;;;;;;5054697;28;20022;-73
2024/03/11 11:41:47;;;;;;;4.22;2.25;;;11.60;99.90;;;;;;5037423;28;20052;-72
2024/03/11 11:44:28;;;;;;;2.30;1.27;;;11.50;99.90;;;;;;5036942;28;20029;-73
2024/03/11 11:47:05;;;;;;;3.63;1.15;;;11.40;99.90;;;;;;5054838;28;20029;-72
2024/03/11 11:49:34;;;;;;;4.18;1.10;;;11.40;99.90;;;;;;5037155;28;20035;-73
2024/03/11 11:52:00;;;;;;;1.83;1.33;;;11.50;99.90;;;;;;5054200;28;20033;-72
2024/03/11 11:54:28;;;;;;;2.60;1.38;;;11.30;99.90;;;;;;5054478;28;20549;-72
2024/03/11 11:57:06;;;;;;;3.53;1.60;;;11.00;99.90;;;;;;5053835;28;20033;-73
2024/03/11 11:59:38;;;;;;;2.28;1.33;;;10.90;99.90;;;;;;5044874;28;20390;-72
2024/03/11 12:02:05;;;;;;;5.95;1.77;;;10.90;99.90;;;;;;5035796;28;20430;-73
2024/03/11 12:04:33;;;;;;;2.17;1.20;;;10.90;99.90;;;;;;5054211;28;20104;-73
2024/03/11 12:07:00;;;;;;;4.40;1.40;;;10.90;99.90;;;;;;5035541;28;20032;-74
2024/03/11 12:09:26;;;;;;;2.15;1.73;;;10.80;99.90;;;;;;5046334;28;20150;-73
2024/03/11 12:11:59;;;;;;;3.17;2.15;;;10.70;99.90;;;;;;5031421;28;20053;-72
2024/03/11 12:14:25;;;;;;;4.00;1.65;;;10.60;99.90;;;;;;5035229;28;20037;-72
2024/03/11 12:17:03;;;;;;;4.05;2.47;;;10.60;99.90;;;;;;5049212;28;20028;-72
2024/03/11 12:19:30;;;;;;;3.70;1.85;;;10.50;99.90;;;;;;5042227;28;20053;-72
2024/03/11 12:21:58;;;;;;;2.67;1.70;;;10.40;99.90;;;;;;5050863;28;20063;-72
2024/03/11 12:24:25;;;;;;;3.28;2.38;;;10.40;99.90;;;;;;5032483;28;20364;-72
2024/03/11 12:26:52;;;;;;;3.75;1.95;;;10.40;99.90;;;;;;5033219;28;20476;-74
2024/03/11 12:29:21;;;;;;;6.50;3.38;;;10.40;99.90;;;;;;5034029;28;20476;-72
2024/03/11 12:31:56;;;;;;;4.97;2.35;;;10.50;99.90;;;;;;5034230;28;20018;-73
2024/03/11 12:34:24;;;;;;;5.00;2.50;;;10.70;99.90;;;;;;5042490;28;20025;-74
2024/03/11 12:36:51;;;;;;;7.47;2.80;;;10.80;99.90;;;;;;5044673;28;20445;-73
2024/03/11 12:39:27;;;;;;;5.28;2.83;;;10.70;99.90;;;;;;5044889;28;20071;-73
2024/03/11 12:41:55;;;;;;;7.07;3.00;;;10.80;99.90;;;;;;5030567;28;20029;-78
2024/03/11 12:44:21;;;;;;;5.78;2.55;;;10.90;99.90;;;;;;5036758;28;20111;-74
2024/03/11 12:46:50;;;;;;;16.38;2.83;;;10.90;99.90;;;;;;5047468;28;20119;-74
2024/03/11 12:49:18;;;;;;;3.40;2.42;;;10.80;99.90;;;;;;5031627;28;20030;-76
2024/03/11 12:51:44;;;;;;;8.50;2.65;;;10.80;99.90;;;;;;5033735;28;20048;-73
2024/03/11 12:54:18;;;;;;;2.47;2.08;;;10.70;99.90;;;;;;5045227;28;20083;-74
2024/03/11 12:57:04;;;;;;;4.57;2.35;;;10.60;99.90;;;;;;5049600;28;20036;-77